Syosyun — JD2406 — position and weather

sailwx.info

Track history (hours):
 
Tides and Currents Weather Stations Pressure Air Temp Water Temp Dewpoint Dewpoint Depression Visibility Wind Speed Wind Dir Waves Ship Positions

Syosyun

Last reported at 2017-May-12 11:17 UTC. Time now 2017-May-24 06:08 UTC.
Position N 34°59' E 139°26'.
Warning: this ship's position is 11 days out of date.

Length 74 m; draft 4 m.

Type: Cargo ship. MMSI: 431000201.

Date/timePositionNaut miles runAvg speedWind from/ knotsBaromVisibWave heightAir tempDewpointWater temp
2017-May-12 11:17N 34°59' E 139°26'611.6
2017-May-12 10:44N 35°03' E 139°32'310.8
2017-May-12 10:29N 35°04' E 139°35'511.6
2017-May-12 10:00N 35°07' E 139°40'611.5
2017-May-12 09:30N 35°11' E 139°45'510.6
2017-May-12 09:01N 35°16' E 139°45'611.3
2017-May-12 08:31N 35°21' E 139°42'510.8
2017-May-12 08:01N 35°26' E 139°45'611.4
2017-May-12 07:31N 35°30' E 139°51'611.7
2017-May-12 07:00N 35°32' E 139°58'611.1
2017-May-12 06:29N 35°33' E 140°05'2 0.1
2017-May-11 08:49N 35°33' E 140°07'310.9
2017-May-11 08:31N 35°33' E 140°03'612.5
2017-May-11 08:01N 35°32' E 139°55'612.6
2017-May-11 07:30N 35°30' E 139°48'2 3.7
2017-May-11 06:56N 35°31' E 139°45'0 0.0
2017-May-11 06:29N 35°31' E 139°45'0 0.0
2017-May-11 05:59N 35°31' E 139°45'0 0.0
2017-May-11 05:28N 35°31' E 139°45'0 0.0
2017-May-11 04:58N 35°31' E 139°45'0 0.0
2017-May-11 04:29N 35°31' E 139°45'0 0.0
2017-May-11 03:59N 35°31' E 139°45'0 0.0
2017-May-11 03:28N 35°31' E 139°45'0 0.0
2017-May-11 02:58N 35°31' E 139°45'0 0.0
2017-May-11 02:28N 35°31' E 139°45'0 0.0
2017-May-11 01:59N 35°31' E 139°45'0 0.0
2017-May-11 01:22N 35°31' E 139°45'0 0.0
2017-May-11 00:59N 35°31' E 139°45'0 0.0
2017-May-11 00:29N 35°31' E 139°45'0 0.0
2017-May-10 23:59N 35°31' E 139°45'0 0.0
2017-May-10 23:26N 35°31' E 139°45'0 0.0
2017-May-10 22:59N 35°31' E 139°45'0 0.0
2017-May-10 22:29N 35°31' E 139°45'2 3.9
2017-May-10 22:00N 35°30' E 139°47'3 6.7
2017-May-10 21:30N 35°27' E 139°47'510.0
2017-May-10 21:00N 35°22' E 139°45'4 8.9
2017-May-10 20:30N 35°18' E 139°45'5 9.3
2017-May-10 20:00N 35°13' E 139°47'5 9.6
2017-May-10 19:30N 35°08' E 139°47'5 9.7
2017-May-10 19:00N 35°04' E 139°44'510.2
2017-May-10 18:30N 34°59' E 139°41'510.3
2017-May-10 18:00N 34°55' E 139°38'  
2017-May-08 12:52N 34°55' E 139°18'512.0
2017-May-08 12:25N 34°57' E 139°24'511.3
2017-May-08 12:00N 34°60' E 139°29'611.1
2017-May-08 11:30N 35°03' E 139°34'611.4
2017-May-08 11:00N 35°07' E 139°40'611.8
2017-May-08 10:30N 35°11' E 139°45'611.2
2017-May-08 10:00N 35°16' E 139°45'612.5
2017-May-08 09:30N 35°22' E 139°42'612.1
2017-May-08 09:00N 35°27' E 139°47'611.7
2017-May-08 08:30N 35°31' E 139°52'611.1
2017-May-08 08:00N 35°35' E 139°56'5 9.1
2017-May-08 07:29N 35°40' E 139°57'1 0.4
2017-May-08 05:22N 35°41' E 139°58'0 0.0
2017-May-08 01:37N 35°41' E 139°58'  
2017-May-05 14:28N 35°37' E 139°58'0 0.0
2017-May-05 07:49N 35°37' E 139°58'3 0.2
2017-May-04 16:50N 35°35' E 139°56'411.6
2017-May-04 16:31N 35°31' E 139°54'611.5
2017-May-04 16:00N 35°27' E 139°49'611.4
2017-May-04 15:30N 35°22' E 139°45'510.5
2017-May-04 15:00N 35°17' E 139°46'1110.8
2017-May-04 14:00N 35°06' E 139°44'611.6
2017-May-04 13:30N 35°02' E 139°39'611.8
2017-May-04 12:58N 34°58' E 139°33'232 9.3
2017-May-03 12:10N 34°03' E 135°00'210.9
2017-May-03 11:59N 34°04' E 134°60'510.7
2017-May-03 11:29N 34°10' E 134°59'1311.5
2017-May-03 10:20N 34°23' E 135°00'411.0
2017-May-03 10:00N 34°26' E 135°01'610.8
2017-May-03 09:30N 34°32' E 135°03'510.1
2017-May-03 09:00N 34°37' E 135°01'611.2
2017-May-03 08:29N 34°37' E 134°54'  
Track history (hours):
 
Tides and Currents Weather Stations Pressure Air Temp Water Temp Dewpoint Dewpoint Depression Visibility Wind Speed Wind Dir Waves Ship Positions

Syosyun

Last reported at 2017-May-12 11:17 UTC. Time now 2017-May-24 06:08 UTC.
Position N 34°59' E 139°26'.
Warning: this ship's position is 11 days out of date.

Length 74 m; draft 4 m.

Type: Cargo ship. MMSI: 431000201.

Date/timePositionNaut miles runAvg speedWind from/ knotsBaromVisibWave heightAir tempDewpointWater temp
2017-May-12 11:17N 34°59' E 139°26'611.6
2017-May-12 10:44N 35°03' E 139°32'310.8
2017-May-12 10:29N 35°04' E 139°35'511.6
2017-May-12 10:00N 35°07' E 139°40'611.5
2017-May-12 09:30N 35°11' E 139°45'510.6
2017-May-12 09:01N 35°16' E 139°45'611.3
2017-May-12 08:31N 35°21' E 139°42'510.8
2017-May-12 08:01N 35°26' E 139°45'611.4
2017-May-12 07:31N 35°30' E 139°51'611.7
2017-May-12 07:00N 35°32' E 139°58'611.1
2017-May-12 06:29N 35°33' E 140°05'2 0.1
2017-May-11 08:49N 35°33' E 140°07'310.9
2017-May-11 08:31N 35°33' E 140°03'612.5
2017-May-11 08:01N 35°32' E 139°55'612.6
2017-May-11 07:30N 35°30' E 139°48'2 3.7
2017-May-11 06:56N 35°31' E 139°45'0 0.0
2017-May-11 06:29N 35°31' E 139°45'0 0.0
2017-May-11 05:59N 35°31' E 139°45'0 0.0
2017-May-11 05:28N 35°31' E 139°45'0 0.0
2017-May-11 04:58N 35°31' E 139°45'0 0.0
2017-May-11 04:29N 35°31' E 139°45'0 0.0
2017-May-11 03:59N 35°31' E 139°45'0 0.0
2017-May-11 03:28N 35°31' E 139°45'0 0.0
2017-May-11 02:58N 35°31' E 139°45'0 0.0
2017-May-11 02:28N 35°31' E 139°45'0 0.0
2017-May-11 01:59N 35°31' E 139°45'0 0.0
2017-May-11 01:22N 35°31' E 139°45'0 0.0
2017-May-11 00:59N 35°31' E 139°45'0 0.0
2017-May-11 00:29N 35°31' E 139°45'0 0.0
2017-May-10 23:59N 35°31' E 139°45'0 0.0
2017-May-10 23:26N 35°31' E 139°45'0 0.0
2017-May-10 22:59N 35°31' E 139°45'0 0.0
2017-May-10 22:29N 35°31' E 139°45'2 3.9
2017-May-10 22:00N 35°30' E 139°47'3 6.7
2017-May-10 21:30N 35°27' E 139°47'510.0
2017-May-10 21:00N 35°22' E 139°45'4 8.9
2017-May-10 20:30N 35°18' E 139°45'5 9.3
2017-May-10 20:00N 35°13' E 139°47'5 9.6
2017-May-10 19:30N 35°08' E 139°47'5 9.7
2017-May-10 19:00N 35°04' E 139°44'510.2
2017-May-10 18:30N 34°59' E 139°41'510.3
2017-May-10 18:00N 34°55' E 139°38'  
2017-May-08 12:52N 34°55' E 139°18'512.0
2017-May-08 12:25N 34°57' E 139°24'511.3
2017-May-08 12:00N 34°60' E 139°29'611.1
2017-May-08 11:30N 35°03' E 139°34'611.4
2017-May-08 11:00N 35°07' E 139°40'611.8
2017-May-08 10:30N 35°11' E 139°45'611.2
2017-May-08 10:00N 35°16' E 139°45'612.5
2017-May-08 09:30N 35°22' E 139°42'612.1
2017-May-08 09:00N 35°27' E 139°47'611.7
2017-May-08 08:30N 35°31' E 139°52'611.1
2017-May-08 08:00N 35°35' E 139°56'5 9.1
2017-May-08 07:29N 35°40' E 139°57'1 0.4
2017-May-08 05:22N 35°41' E 139°58'0 0.0
2017-May-08 01:37N 35°41' E 139°58'  
2017-May-05 14:28N 35°37' E 139°58'0 0.0
2017-May-05 07:49N 35°37' E 139°58'3 0.2
2017-May-04 16:50N 35°35' E 139°56'411.6
2017-May-04 16:31N 35°31' E 139°54'611.5
2017-May-04 16:00N 35°27' E 139°49'611.4
2017-May-04 15:30N 35°22' E 139°45'510.5
2017-May-04 15:00N 35°17' E 139°46'1110.8
2017-May-04 14:00N 35°06' E 139°44'611.6
2017-May-04 13:30N 35°02' E 139°39'611.8
2017-May-04 12:58N 34°58' E 139°33'232 9.3
2017-May-03 12:10N 34°03' E 135°00'210.9
2017-May-03 11:59N 34°04' E 134°60'510.7
2017-May-03 11:29N 34°10' E 134°59'1311.5
2017-May-03 10:20N 34°23' E 135°00'411.0
2017-May-03 10:00N 34°26' E 135°01'610.8
2017-May-03 09:30N 34°32' E 135°03'510.1
2017-May-03 09:00N 34°37' E 135°01'611.2
2017-May-03 08:29N 34°37' E 134°54'  

Dump ship's entire track history